Time;durP1;ratioP1;P1;durP2;ratioP2;P2;SDS_P1;SDS_P2;PMS_P1;PMS_P2;Temp;Humidity;BMP_temperature;BMP_pressure;BME280_temperature;BME280_humidity;BME280_pressure;Samples;Min_cycle;Max_cycle;Signal;HPM_P1;HPM_P2
2021/08/26 00:07:30;;;;;;;16.17;7.70;;;;;;;9.15;100.00;93788.06;5074587;28;20289;-80
2021/08/26 00:09:57;;;;;;;13.67;7.90;;;;;;;9.16;100.00;93779.28;5074380;28;20203;-83
2021/08/26 00:12:23;;;;;;;15.47;7.87;;;;;;;9.20;100.00;93771.88;5074578;28;20203;-82
2021/08/26 00:14:51;;;;;;;15.47;7.63;;;;;;;9.26;100.00;93779.72;5074258;28;20207;-82
2021/08/26 00:17:18;;;;;;;12.57;7.07;;;;;;;9.26;100.00;93776.31;5074400;28;20198;-82
2021/08/26 00:19:44;;;;;;;11.90;6.27;;;;;;;9.26;100.00;93774.50;5074404;28;20203;-82
2021/08/26 00:22:11;;;;;;;15.83;7.20;;;;;;;9.29;100.00;93764.69;5074243;28;20198;-82
2021/08/26 00:24:38;;;;;;;12.87;6.57;;;;;;;9.22;100.00;93762.84;5074008;28;20226;-81
2021/08/26 00:27:05;;;;;;;13.47;6.80;;;;;;;9.23;100.00;93756.66;5071689;28;20557;-82
2021/08/26 00:29:31;;;;;;;18.10;7.10;;;;;;;9.33;100.00;93761.53;5074143;28;20250;-81
2021/08/26 00:31:59;;;;;;;13.17;7.63;;;;;;;9.40;100.00;93756.34;5073690;28;20641;-81
2021/08/26 00:34:28;;;;;;;15.30;7.43;;;;;;;9.41;100.00;93763.19;5074008;28;20202;-81
2021/08/26 00:36:54;;;;;;;13.67;7.13;;;;;;;9.43;100.00;93761.19;5073810;28;20752;-81
2021/08/26 00:39:21;;;;;;;17.97;7.53;;;;;;;9.51;100.00;93763.63;5074054;28;20226;-81
2021/08/26 00:41:47;;;;;;;13.70;7.13;;;;;;;9.61;100.00;93758.84;5074037;28;20210;-82
2021/08/26 00:44:14;;;;;;;15.03;7.03;;;;;;;9.67;100.00;93752.03;5073782;28;20230;-81
2021/08/26 00:46:41;;;;;;;15.02;8.00;;;;;;;9.73;100.00;93748.66;5072135;28;20779;-82
2021/08/26 00:49:12;;;;;;;14.87;7.13;;;;;;;9.79;100.00;93745.28;5073738;28;20199;-81
2021/08/26 00:51:39;;;;;;;12.07;7.00;;;;;;;9.79;100.00;93744.44;5073570;28;20194;-82
2021/08/26 00:54:05;;;;;;;11.83;6.47;;;;;;;9.81;100.00;93745.88;5073310;28;20210;-81
2021/08/26 00:56:32;;;;;;;12.50;6.40;;;;;;;9.81;100.00;93743.28;5073171;28;20199;-82
2021/08/26 00:59:02;;;;;;;25.47;6.97;;;;;;;9.81;100.00;93748.47;5073148;28;20206;-80
2021/08/26 01:01:36;;;;;;;13.40;6.77;;;;;;;9.83;100.00;93735.25;5073215;28;20203;-81
2021/08/26 01:04:08;;;;;;;16.57;6.70;;;;;;;9.82;100.00;93737.06;5073071;28;20705;-81
2021/08/26 01:06:43;;;;;;;12.00;6.40;;;;;;;9.82;100.00;93724.03;5072788;28;20565;-81
2021/08/26 01:09:13;;;;;;;12.97;6.43;;;;;;;9.85;100.00;93722.81;5072586;28;20210;-82
2021/08/26 01:11:44;;;;;;;12.90;5.90;;;;;;;9.85;100.00;93715.00;5073469;28;20194;-81
2021/08/26 01:14:12;;;;;;;16.53;6.77;;;;;;;9.84;100.00;93721.19;5073089;28;20207;-81
2021/08/26 01:16:39;;;;;;;15.37;7.27;;;;;;;9.85;100.00;93717.59;5072312;28;20209;-79
2021/08/26 01:19:06;;;;;;;15.53;6.33;;;;;;;9.85;100.00;93709.78;5072783;28;20302;-81
2021/08/26 01:21:33;;;;;;;13.90;6.27;;;;;;;9.83;100.00;93717.00;5072636;28;20207;-81
2021/08/26 01:24:03;;;;;;;16.03;6.57;;;;;;;9.80;100.00;93710.38;5072717;28;20223;-81
2021/08/26 01:26:36;;;;;;;12.33;6.70;;;;;;;9.78;100.00;93719.41;5072265;28;20203;-81
2021/08/26 01:29:05;;;;;;;16.90;6.67;;;;;;;9.69;100.00;93712.75;5073295;28;20191;-81
2021/08/26 01:31:32;;;;;;;12.63;7.30;;;;;;;9.66;100.00;93707.91;5071910;28;20937;-81
2021/08/26 01:33:59;;;;;;;20.47;6.97;;;;;;;9.59;100.00;93710.50;5072964;28;20673;-81
2021/08/26 01:36:28;;;;;;;12.37;6.43;;;;;;;9.49;100.00;93708.25;5072952;28;20207;-81
2021/08/26 01:39:01;;;;;;;14.37;6.07;;;;;;;9.45;100.00;93707.84;5072401;28;20209;-81
2021/08/26 01:41:42;;;;;;;15.50;7.03;;;;;;;9.41;100.00;93705.84;5073001;28;20198;-81
2021/08/26 01:44:10;;;;;;;13.87;6.30;;;;;;;9.37;100.00;93699.41;5072733;28;20233;-81
2021/08/26 01:46:37;;;;;;;13.70;6.70;;;;;;;9.29;100.00;93710.00;5072721;28;20234;-81
2021/08/26 01:49:04;;;;;;;12.90;6.90;;;;;;;9.19;100.00;93707.75;5071979;28;20209;-81
2021/08/26 01:51:30;;;;;;;15.87;7.13;;;;;;;9.22;100.00;93699.53;5063122;28;20203;-81
2021/08/26 01:53:57;;;;;;;14.10;6.73;;;;;;;9.25;100.00;93705.16;5072821;28;20203;-83
2021/08/26 01:56:24;;;;;;;14.03;7.20;;;;;;;9.15;100.00;93696.91;5070964;28;20213;-82
2021/08/26 01:58:51;;;;;;;13.80;7.27;;;;;;;9.14;100.00;93697.09;5068797;28;20204;-80
2021/08/26 02:01:18;;;;;;;12.60;6.53;;;;;;;9.14;100.00;93700.50;5072869;28;20198;-81
2021/08/26 02:03:45;;;;;;;13.13;7.30;;;;;;;9.11;100.00;93695.69;5072862;28;20229;-82
2021/08/26 02:06:11;;;;;;;15.57;8.07;;;;;;;9.09;100.00;93697.69;5072690;28;20202;-81
2021/08/26 02:08:38;;;;;;;18.80;7.93;;;;;;;9.04;100.00;93690.47;5072886;28;20199;-81
2021/08/26 02:11:05;;;;;;;13.30;7.33;;;;;;;8.97;100.00;93683.59;5072726;28;20787;-81
2021/08/26 02:13:31;;;;;;;12.73;6.77;;;;;;;8.88;100.00;93686.38;5072807;28;20293;-81
2021/08/26 02:15:59;;;;;;;14.80;7.10;;;;;;;8.91;100.00;93684.38;5072742;28;20202;-82
2021/08/26 02:18:26;;;;;;;14.73;7.30;;;;;;;8.91;100.00;93684.38;5072631;28;20600;-81
2021/08/26 02:20:52;;;;;;;16.23;7.80;;;;;;;8.76;100.00;93681.88;5072502;28;20199;-82
2021/08/26 02:23:19;;;;;;;14.77;7.63;;;;;;;8.71;100.00;93682.47;5072418;28;20586;-82
2021/08/26 02:25:45;;;;;;;17.37;7.57;;;;;;;8.70;100.00;93688.66;5072795;28;20195;-81
2021/08/26 02:28:12;;;;;;;16.70;7.53;;;;;;;8.72;100.00;93678.06;5072564;28;20205;-81
2021/08/26 02:30:38;;;;;;;15.20;7.90;;;;;;;8.70;100.00;93675.66;5072610;28;20198;-82
2021/08/26 02:33:06;;;;;;;16.10;7.03;;;;;;;8.60;100.00;93667.38;5072631;28;20202;-81
2021/08/26 02:35:33;;;;;;;16.67;8.67;;;;;;;8.65;100.00;93676.22;5072545;28;20665;-81
2021/08/26 02:37:59;;;;;;;17.13;7.90;;;;;;;8.60;100.00;93673.38;5074115;28;20253;-82
2021/08/26 02:40:26;;;;;;;15.80;8.07;;;;;;;8.58;100.00;93682.38;5076240;28;20198;-81
2021/08/26 02:42:52;;;;;;;13.90;7.80;;;;;;;8.49;100.00;93673.91;5076451;28;20206;-81
2021/08/26 02:45:19;;;;;;;16.10;8.23;;;;;;;8.45;100.00;93676.09;5075680;28;20711;-82
2021/08/26 02:47:46;;;;;;;14.00;7.67;;;;;;;8.40;100.00;93683.63;5076480;28;20202;-82
2021/08/26 02:50:13;;;;;;;14.47;8.00;;;;;;;8.40;100.00;93678.41;5075501;28;20290;-82
2021/08/26 02:52:40;;;;;;;21.23;8.80;;;;;;;8.46;100.00;93675.09;5075125;28;20653;-81
2021/08/26 02:55:07;;;;;;;18.70;8.67;;;;;;;8.45;100.00;93670.88;5076141;28;20245;-81
2021/08/26 02:57:33;;;;;;;16.47;8.77;;;;;;;8.46;100.00;93671.69;5075890;28;20203;-82
2021/08/26 03:00:00;;;;;;;14.53;8.60;;;;;;;8.45;100.00;93673.47;5075900;28;20210;-81
2021/08/26 03:02:26;;;;;;;20.37;8.90;;;;;;;8.43;100.00;93667.66;5075785;28;20206;-81
2021/08/26 03:04:53;;;;;;;19.00;8.90;;;;;;;8.38;100.00;93672.63;5075662;28;20237;-82
2021/08/26 03:07:21;;;;;;;15.17;7.63;;;;;;;8.28;100.00;93679.94;5075819;28;20206;-81
2021/08/26 03:09:47;;;;;;;16.87;8.27;;;;;;;8.18;100.00;93675.06;5075748;28;20203;-81
2021/08/26 03:12:14;;;;;;;14.23;7.57;;;;;;;8.19;100.00;93675.88;5075764;28;20554;-81
2021/08/26 03:14:40;;;;;;;16.47;8.30;;;;;;;8.18;100.00;93669.03;5075657;28;20206;-80
2021/08/26 03:17:07;;;;;;;17.73;8.67;;;;;;;8.13;100.00;93659.22;5075548;28;20194;-81
2021/08/26 03:19:33;;;;;;;17.73;9.23;;;;;;;8.25;100.00;93655.09;5075688;28;20293;-80
2021/08/26 03:22:03;;;;;;;20.57;10.00;;;;;;;8.34;100.00;93647.97;5075380;28;20199;-80
2021/08/26 03:24:33;;;;;;;16.33;8.97;;;;;;;8.29;100.00;93650.31;5075002;28;20226;-80
2021/08/26 03:27:00;;;;;;;19.30;9.60;;;;;;;8.29;100.00;93638.16;5075378;28;20207;-81
2021/08/26 03:29:27;;;;;;;22.07;8.57;;;;;;;8.23;100.00;93635.50;5075378;28;20565;-81
2021/08/26 03:31:53;;;;;;;18.53;9.40;;;;;;;8.21;100.00;93632.25;5075086;28;20646;-81
2021/08/26 03:34:21;;;;;;;18.90;9.60;;;;;;;8.27;100.00;93626.31;5075358;28;20206;-81
2021/08/26 03:36:48;;;;;;;17.40;9.43;;;;;;;8.21;100.00;93622.69;5075270;28;20203;-82
2021/08/26 03:39:14;;;;;;;20.23;10.03;;;;;;;8.25;100.00;93621.28;5075304;28;20199;-81
2021/08/26 03:41:42;;;;;;;18.53;8.73;;;;;;;8.20;100.00;93628.88;5074819;28;20195;-81
2021/08/26 03:44:11;;;;;;;20.00;9.77;;;;;;;8.17;100.00;93631.03;5075108;28;20245;-81
2021/08/26 03:46:37;;;;;;;21.27;8.50;;;;;;;8.03;100.00;93630.94;5074821;28;20311;-82
2021/08/26 03:49:05;;;;;;;21.90;9.83;;;;;;;8.17;100.00;93612.84;5074768;28;20199;-82
2021/08/26 03:51:32;;;;;;;22.00;11.50;;;;;;;8.01;100.00;93617.34;5073929;28;20442;-82
2021/08/26 03:53:58;;;;;;;15.00;8.43;;;;;;;7.82;100.00;93617.97;5073882;28;20203;-82
2021/08/26 03:56:25;;;;;;;16.77;8.03;;;;;;;7.78;100.00;93613.16;5074677;28;20202;-82
2021/08/26 03:58:53;;;;;;;16.10;7.93;;;;;;;7.78;100.00;93613.16;5075094;28;20290;-81
2021/08/26 04:01:19;;;;;;;21.83;9.33;;;;;;;7.83;100.00;93606.56;5074955;28;20209;-81
2021/08/26 04:03:46;;;;;;;19.83;9.40;;;;;;;7.85;100.00;93602.00;5074542;28;20210;-81
2021/08/26 04:06:12;;;;;;;21.63;10.47;;;;;;;8.07;100.00;93600.97;5074769;28;20207;-82
2021/08/26 04:08:45;;;;;;;25.00;12.07;;;;;;;8.15;100.00;93597.44;5074699;28;20203;-81
2021/08/26 04:11:13;;;;;;;20.67;11.20;;;;;;;8.29;100.00;93599.13;5074714;28;20201;-81
2021/08/26 04:13:39;;;;;;;23.40;11.60;;;;;;;8.36;100.00;93600.94;5074460;28;20233;-81
2021/08/26 04:16:07;;;;;;;23.23;11.70;;;;;;;8.45;100.00;93602.44;5074335;28;20206;-81
2021/08/26 04:18:35;;;;;;;20.60;10.23;;;;;;;8.37;100.00;93603.38;5073220;28;20202;-81
2021/08/26 04:21:02;;;;;;;15.50;9.23;;;;;;;8.31;100.00;93604.94;5074464;28;20604;-82
2021/08/26 04:23:28;;;;;;;18.93;10.30;;;;;;;8.46;100.00;93607.47;5074370;28;20646;-81
2021/08/26 04:25:55;;;;;;;23.23;11.53;;;;;;;8.49;100.00;93614.88;5073986;28;20317;-82
2021/08/26 04:28:21;;;;;;;27.93;11.63;;;;;;;8.65;100.00;93610.38;5074178;28;20198;-82
2021/08/26 04:30:51;;;;;;;19.43;10.20;;;;;;;8.59;100.00;93603.31;5074280;28;20203;-81
2021/08/26 04:33:19;;;;;;;19.83;10.40;;;;;;;8.59;100.00;93618.94;5074059;28;20281;-81
2021/08/26 04:35:45;;;;;;;19.63;9.43;;;;;;;8.47;100.00;93616.84;5074068;28;20245;-82
2021/08/26 04:38:14;;;;;;;17.07;9.03;;;;;;;8.41;100.00;93617.63;5073839;28;20210;-82
2021/08/26 04:40:40;;;;;;;18.93;10.67;;;;;;;8.53;100.00;93610.09;5073606;28;20199;-82
2021/08/26 04:43:09;;;;;;;19.90;10.97;;;;;;;8.65;100.00;93613.75;5074034;28;20203;-82
2021/08/26 04:45:35;;;;;;;19.50;10.20;;;;;;;8.61;100.00;93614.31;5073707;28;20238;-82
2021/08/26 04:48:02;;;;;;;18.97;9.87;;;;;;;8.64;100.00;93617.38;5073949;28;20539;-81
2021/08/26 04:50:32;;;;;;;23.33;12.20;;;;;;;8.81;100.00;93620.47;5073874;28;20199;-81
2021/08/26 04:52:58;;;;;;;25.43;11.13;;;;;;;8.91;100.00;93622.72;5074072;28;20195;-81
2021/08/26 04:55:25;;;;;;;18.03;10.00;;;;;;;8.88;100.00;93617.88;5073932;28;20198;-81
2021/08/26 04:57:51;;;;;;;22.60;9.13;;;;;;;8.84;100.00;93621.84;5073824;28;20210;-81
2021/08/26 05:00:18;;;;;;;19.33;7.93;;;;;;;8.65;100.00;93623.38;5073707;28;20566;-81
2021/08/26 05:02:44;;;;;;;17.67;7.93;;;;;;;8.55;100.00;93625.53;5072996;28;20276;-81
2021/08/26 05:05:11;;;;;;;13.00;8.17;;;;;;;8.48;100.00;93621.06;5071952;28;20268;-81
2021/08/26 05:07:40;;;;;;;16.07;8.40;;;;;;;8.48;100.00;93617.69;5073426;28;20293;-81
2021/08/26 05:10:08;;;;;;;19.50;8.87;;;;;;;8.52;100.00;93614.47;5073406;28;20202;-82
2021/08/26 05:12:35;;;;;;;18.77;10.40;;;;;;;8.56;100.00;93609.72;5073233;28;20442;-81
2021/08/26 05:15:04;;;;;;;20.90;9.43;;;;;;;8.56;100.00;93614.09;5073413;28;20803;-82
2021/08/26 05:17:32;;;;;;;20.00;9.73;;;;;;;8.71;100.00;93601.78;5073481;28;20272;-83
2021/08/26 05:19:58;;;;;;;23.50;10.73;;;;;;;8.74;100.00;93603.97;5073239;28;20198;-81
2021/08/26 05:22:25;;;;;;;21.90;10.77;;;;;;;8.91;100.00;93609.69;5072772;28;20198;-81
2021/08/26 05:24:56;;;;;;;22.58;12.05;;;;;;;8.94;100.00;93611.09;5072310;28;20497;-80
2021/08/26 05:27:22;;;;;;;20.10;10.60;;;;;;;8.97;100.00;93611.50;5073403;28;20654;-81
2021/08/26 05:29:48;;;;;;;26.17;11.73;;;;;;;9.14;100.00;93622.38;5073277;28;20194;-81
2021/08/26 05:32:15;;;;;;;23.93;11.77;;;;;;;9.26;100.00;93625.25;5073156;28;20199;-81
2021/08/26 05:34:42;;;;;;;22.17;10.93;;;;;;;9.37;100.00;93621.25;5073088;28;20289;-82
2021/08/26 05:37:09;;;;;;;23.10;11.07;;;;;;;9.53;100.00;93622.69;5073175;28;20199;-82
2021/08/26 05:39:37;;;;;;;16.87;10.00;;;;;;;9.53;100.00;93626.09;5073029;28;20199;-81
2021/08/26 05:42:05;;;;;;;18.70;9.23;;;;;;;9.56;100.00;93624.88;5073078;28;20198;-80
2021/08/26 05:44:32;;;;;;;17.07;9.07;;;;;;;9.72;100.00;93623.72;5072935;28;20261;-83
2021/08/26 05:46:59;;;;;;;15.93;8.13;;;;;;;9.77;100.00;93622.09;5072810;28;20232;-81
2021/08/26 05:49:25;;;;;;;15.90;8.30;;;;;;;9.93;100.00;93618.31;5072694;28;20569;-81
2021/08/26 05:51:56;;;;;;;15.57;7.73;;;;;;;10.03;100.00;93617.13;5072874;28;20737;-81
2021/08/26 05:54:24;;;;;;;14.23;8.40;;;;;;;10.17;100.00;93616.09;5073258;28;20233;-80
2021/08/26 05:56:56;;;;;;;18.00;8.77;;;;;;;10.33;100.00;93617.53;5072936;28;20230;-82
2021/08/26 05:59:23;;;;;;;18.93;8.20;;;;;;;10.52;100.00;93610.69;5073049;28;20199;-81
2021/08/26 06:01:52;;;;;;;17.77;9.07;;;;;;;10.86;100.00;93614.81;5072911;28;20199;-83
2021/08/26 06:04:18;;;;;;;18.20;9.90;;;;;;;11.24;100.00;93600.19;5072952;28;20205;-82
2021/08/26 06:06:45;;;;;;;17.40;9.43;;;;;;;11.37;100.00;93602.72;5071970;28;20206;-81
2021/08/26 06:09:14;;;;;;;15.07;8.80;;;;;;;11.33;100.00;93608.59;5072739;28;20217;-82
2021/08/26 06:11:42;;;;;;;15.40;7.07;;;;;;;11.50;100.00;93603.69;5073096;28;20198;-82
2021/08/26 06:14:09;;;;;;;13.90;7.30;;;;;;;11.68;100.00;93601.16;5076258;28;20199;-82
2021/08/26 06:16:42;;;;;;;14.23;7.20;;;;;;;11.89;100.00;93607.03;5077378;28;20198;-82
2021/08/26 06:19:08;;;;;;;14.13;7.40;;;;;;;11.99;100.00;93604.78;5077063;28;20293;-83
2021/08/26 06:21:35;;;;;;;11.00;6.37;;;;;;;11.92;100.00;93606.66;5073515;28;20907;-82
2021/08/26 06:24:06;;;;;;;14.27;7.10;;;;;;;12.08;100.00;93613.19;5072903;28;20199;-82
2021/08/26 06:26:37;;;;;;;12.63;6.70;;;;;;;12.35;100.00;93611.13;5076243;28;20227;-82
2021/08/26 06:29:04;;;;;;;11.30;6.63;;;;;;;12.50;100.00;93616.81;5076662;28;20565;-82
2021/08/26 06:31:34;;;;;;;12.93;6.80;;;;;;;12.63;100.00;93623.75;5076545;28;20210;-83
2021/08/26 06:34:04;;;;;;;10.80;5.93;;;;;;;12.86;100.00;93617.88;5076627;28;20198;-82
2021/08/26 06:36:31;;;;;;;11.37;6.20;;;;;;;13.00;100.00;93615.13;5076257;28;20238;-83
2021/08/26 06:39:00;;;;;;;10.33;6.10;;;;;;;13.23;100.00;93612.63;5076357;28;20194;-82
2021/08/26 06:41:26;;;;;;;13.18;6.30;;;;;;;13.35;100.00;93615.31;5076283;28;20195;-81
2021/08/26 06:43:53;;;;;;;13.27;6.23;;;;;;;13.30;100.00;93612.53;5076521;28;20741;-82
2021/08/26 06:46:19;;;;;;;11.47;5.90;;;;;;;13.26;100.00;93611.38;5076144;28;20242;-82
2021/08/26 06:48:48;;;;;;;14.03;6.30;;;;;;;13.43;100.00;93611.59;5076388;28;20198;-82
2021/08/26 06:51:16;;;;;;;14.68;6.50;;;;;;;13.38;100.00;93608.84;5076207;28;20198;-82
2021/08/26 06:53:42;;;;;;;12.98;5.72;;;;;;;13.15;100.00;93597.19;5076126;28;20281;-82
2021/08/26 06:56:09;;;;;;;12.25;6.45;;;;;;;13.08;100.00;93604.34;5076077;28;20225;-82
2021/08/26 06:58:35;;;;;;;10.10;6.03;;;;;;;12.98;100.00;93610.09;5076214;28;20713;-82
2021/08/26 07:01:03;;;;;;;20.25;7.10;;;;;;;12.99;100.00;93619.56;5076446;28;20199;-82
2021/08/26 07:03:30;;;;;;;14.75;6.97;;;;;;;13.05;100.00;93620.50;5076194;28;20199;-82
2021/08/26 07:05:57;;;;;;;13.60;6.67;;;;;;;13.18;100.00;93614.31;5075373;28;20238;-82
2021/08/26 07:08:25;;;;;;;14.38;5.93;;;;;;;13.61;100.00;93619.41;5075919;28;20206;-82
2021/08/26 07:10:52;;;;;;;13.43;6.70;;;;;;;14.19;100.00;93609.31;5076036;28;20203;-83
2021/08/26 07:13:18;;;;;;;17.48;6.15;;;;;;;14.79;100.00;93614.34;5075864;28;20203;-83
2021/08/26 07:15:47;;;;;;;21.77;6.05;;;;;;;15.35;100.00;93606.00;5075307;28;20198;-83
2021/08/26 07:18:18;;;;;;;9.68;5.82;;;;;;;15.52;100.00;93604.22;5075966;28;20293;-82
2021/08/26 07:20:45;;;;;;;16.30;6.15;;;;;;;15.26;99.53;93604.78;5075469;28;20254;-82
2021/08/26 07:23:13;;;;;;;12.38;5.57;;;;;;;15.03;98.53;93608.25;5074636;28;20198;-83
2021/08/26 07:25:47;;;;;;;12.15;6.10;;;;;;;14.89;100.00;93610.31;5074928;28;20226;-82
2021/08/26 07:28:16;;;;;;;11.68;5.70;;;;;;;14.95;98.46;93609.41;5076661;28;20207;-83
2021/08/26 07:30:43;;;;;;;13.82;5.97;;;;;;;14.70;99.82;93610.47;5074956;28;20224;-82
2021/08/26 07:33:09;;;;;;;13.95;5.70;;;;;;;14.54;100.00;93611.16;5075164;28;20198;-83
2021/08/26 07:35:38;;;;;;;11.02;5.45;;;;;;;14.54;100.00;93608.53;5075090;28;20280;-82
2021/08/26 07:38:05;;;;;;;12.50;6.40;;;;;;;14.72;99.29;93607.59;5075003;28;20434;-81
2021/08/26 07:40:31;;;;;;;9.32;5.10;;;;;;;15.06;100.00;93603.34;5075426;28;20234;-82
2021/08/26 07:42:59;;;;;;;13.65;5.30;;;;;;;15.31;98.53;93594.34;5075416;28;20679;-82
2021/08/26 07:45:29;;;;;;;11.88;5.63;;;;;;;15.37;93.92;93609.22;5075466;28;20619;-84
2021/08/26 07:47:55;;;;;;;16.00;5.88;;;;;;;15.13;99.51;93593.47;5077582;28;20202;-83
2021/08/26 07:50:22;;;;;;;12.85;5.50;;;;;;;15.30;95.67;93601.44;5076145;28;20198;-83
2021/08/26 07:52:48;;;;;;;18.05;6.05;;;;;;;15.26;96.45;93602.94;5075602;28;20198;-83
2021/08/26 07:55:15;;;;;;;11.02;5.40;;;;;;;15.13;94.98;93593.47;5075634;28;20684;-82
2021/08/26 07:57:44;;;;;;;11.80;5.43;;;;;;;15.36;99.79;93602.34;5074851;28;20207;-81
2021/08/26 08:00:12;;;;;;;13.35;6.03;;;;;;;15.61;96.02;93602.00;5074827;28;20289;-82
2021/08/26 08:02:39;;;;;;;12.20;5.50;;;;;;;16.20;95.13;93601.72;5075164;28;20263;-82
2021/08/26 08:05:08;;;;;;;13.80;5.63;;;;;;;16.61;94.97;93601.53;5075083;28;20230;-82
2021/08/26 08:07:35;;;;;;;10.73;5.63;;;;;;;16.21;88.08;93598.03;5075752;28;20210;-82
2021/08/26 08:10:05;;;;;;;13.18;5.15;;;;;;;16.79;90.68;93592.56;5074781;28;20198;-82
2021/08/26 08:12:31;;;;;;;10.80;4.63;;;;;;;17.14;88.96;93594.09;5074807;28;20198;-82
2021/08/26 08:14:58;;;;;;;9.27;4.68;;;;;;;16.46;87.11;93595.00;5074890;28;20600;-83
2021/08/26 08:17:28;;;;;;;9.50;5.03;;;;;;;16.12;89.29;93598.69;5074555;28;20199;-82
2021/08/26 08:19:54;;;;;;;9.35;5.07;;;;;;;15.98;91.87;93601.63;5074487;28;20653;-82
2021/08/26 08:22:21;;;;;;;10.77;6.03;;;;;;;15.54;91.55;93599.53;5074228;28;20225;-82
2021/08/26 08:24:47;;;;;;;12.38;5.70;;;;;;;15.29;93.70;93596.44;5074671;28;20203;-82
2021/08/26 08:27:14;;;;;;;11.85;5.75;;;;;;;15.43;95.51;93595.09;5075691;28;20231;-82
2021/08/26 08:29:43;;;;;;;11.40;5.70;;;;;;;15.25;98.31;93597.91;5075418;28;20210;-82
2021/08/26 08:32:12;;;;;;;12.15;6.00;;;;;;;15.14;97.08;93594.28;5074504;28;20217;-81
2021/08/26 08:34:39;;;;;;;10.30;5.90;;;;;;;14.97;98.74;93587.13;5075072;28;20213;-82
2021/08/26 08:37:06;;;;;;;14.65;5.38;;;;;;;14.86;100.00;93597.66;5074685;28;20209;-82
2021/08/26 08:39:33;;;;;;;11.82;5.70;;;;;;;14.82;100.00;93596.50;5075360;28;20749;-82
2021/08/26 08:42:00;;;;;;;13.38;5.93;;;;;;;14.74;100.00;93601.09;5074682;28;20213;-81
2021/08/26 08:44:27;;;;;;;11.90;6.03;;;;;;;14.56;100.00;93594.13;5074955;28;20215;-82
2021/08/26 08:46:57;;;;;;;16.08;5.70;;;;;;;14.52;100.00;93594.78;5074552;28;20325;-82
2021/08/26 08:49:24;;;;;;;10.80;5.40;;;;;;;14.53;100.00;93591.94;5074918;28;20260;-81
2021/08/26 08:51:53;;;;;;;12.27;6.03;;;;;;;14.53;100.00;93591.16;5074974;28;20578;-82
2021/08/26 08:54:22;;;;;;;12.90;6.35;;;;;;;14.66;100.00;93593.56;5075174;28;20199;-82
2021/08/26 08:56:49;;;;;;;14.43;5.90;;;;;;;14.69;100.00;93585.22;5075162;28;20209;-82
2021/08/26 08:59:17;;;;;;;12.18;5.88;;;;;;;14.91;100.00;93585.41;5075086;28;20195;-81
2021/08/26 09:01:51;;;;;;;16.10;6.47;;;;;;;14.85;100.00;93593.44;5064600;28;20227;-81
2021/08/26 09:04:18;;;;;;;11.43;5.72;;;;;;;14.83;100.00;93592.88;5054376;28;20667;-81
2021/08/26 09:06:46;;;;;;;11.25;6.20;;;;;;;14.71;100.00;93606.81;5054576;28;20199;-81
2021/08/26 09:09:16;;;;;;;12.55;5.88;;;;;;;14.79;100.00;93598.59;5053947;28;20202;-83
2021/08/26 09:11:49;;;;;;;13.20;6.55;;;;;;;14.98;100.00;93593.97;5053810;28;20211;-83
2021/08/26 09:14:20;;;;;;;15.32;6.40;;;;;;;14.83;100.00;93592.88;5054174;28;20290;-82
2021/08/26 09:16:50;;;;;;;16.25;5.80;;;;;;;15.06;100.00;93598.06;5054331;28;20211;-82
2021/08/26 09:19:19;;;;;;;10.60;5.70;;;;;;;15.24;100.00;93585.78;5054024;28;20227;-82
2021/08/26 09:21:54;;;;;;;12.95;5.90;;;;;;;15.09;98.54;93597.63;5074292;28;20195;-83
2021/08/26 09:24:22;;;;;;;12.30;5.78;;;;;;;15.02;100.00;93596.97;5075666;28;20209;-80
2021/08/26 09:26:52;;;;;;;11.60;5.72;;;;;;;15.04;100.00;93596.69;5074004;28;20226;-80
2021/08/26 09:29:23;;;;;;;15.75;6.22;;;;;;;14.98;100.00;93598.44;5074904;28;20230;-81
2021/08/26 09:31:51;;;;;;;16.77;5.90;;;;;;;14.92;100.00;93601.97;5074244;28;20203;-81
2021/08/26 09:34:21;;;;;;;16.48;5.93;;;;;;;14.84;100.00;93604.97;5074793;28;20207;-81
2021/08/26 09:36:54;;;;;;;10.38;5.47;;;;;;;14.64;100.00;93605.31;5078345;28;20290;-83
2021/08/26 09:39:24;;;;;;;12.88;6.05;;;;;;;14.68;100.00;93599.38;5079774;28;20660;-82
2021/08/26 09:41:52;;;;;;;10.32;5.35;;;;;;;14.71;99.95;93601.56;5075594;28;20293;-82
2021/08/26 09:44:22;;;;;;;13.00;5.38;;;;;;;14.58;99.81;93599.94;5082281;28;20217;-81
2021/08/26 09:46:51;;;;;;;16.25;6.40;;;;;;;14.41;100.00;93607.72;5079689;28;20242;-80
2021/08/26 09:49:19;;;;;;;11.55;6.60;;;;;;;14.52;100.00;93600.88;5076306;28;20211;-82
2021/08/26 09:52:01;;;;;;;11.95;5.57;;;;;;;14.77;99.20;93599.81;5075328;28;20740;-81
2021/08/26 09:54:36;;;;;;;13.77;5.47;;;;;;;14.86;100.00;93590.56;5078181;28;20236;-82
2021/08/26 09:57:04;;;;;;;13.10;5.43;;;;;;;15.23;97.22;93586.84;5078717;28;20281;-82
2021/08/26 09:59:45;;;;;;;11.55;5.97;;;;;;;15.83;93.33;93581.09;5075467;28;20202;-82
2021/08/26 10:02:13;;;;;;;16.15;5.50;;;;;;;16.33;90.71;93589.28;5074367;28;20677;-82
2021/08/26 10:04:46;;;;;;;11.80;5.30;;;;;;;16.47;90.50;93595.81;5074186;28;20211;-83
2021/08/26 10:07:13;;;;;;;13.93;5.32;;;;;;;15.20;96.42;93597.81;5074519;28;20230;-81
2021/08/26 10:09:47;;;;;;;13.27;5.70;;;;;;;15.41;95.42;93593.75;5068492;28;20557;-79
2021/08/26 10:12:20;;;;;;;10.30;5.63;;;;;;;15.22;96.66;93587.84;5058763;28;20195;-81
2021/08/26 10:14:48;;;;;;;9.68;5.20;;;;;;;15.28;97.96;93597.44;5073433;28;20234;-83
2021/08/26 10:17:15;;;;;;;10.18;5.80;;;;;;;15.08;98.59;93596.00;5074158;28;20194;-84
2021/08/26 10:19:42;;;;;;;14.40;5.63;;;;;;;14.86;100.00;93600.28;5074114;28;20234;-83
2021/08/26 10:22:09;;;;;;;13.88;6.00;;;;;;;14.51;100.00;93593.22;5074766;28;20306;-83
2021/08/26 10:24:42;;;;;;;11.25;5.78;;;;;;;14.22;100.00;93593.88;5073912;28;20198;-82
2021/08/26 10:27:11;;;;;;;14.02;6.85;;;;;;;14.13;100.00;93597.06;5073227;28;20269;-83
2021/08/26 10:29:43;;;;;;;14.32;6.45;;;;;;;14.40;100.00;93597.44;5073639;28;20199;-82
2021/08/26 10:32:16;;;;;;;14.82;6.43;;;;;;;14.16;100.00;93596.63;5075855;28;20203;-82
2021/08/26 10:35:02;;;;;;;12.57;6.22;;;;;;;14.32;100.00;93598.59;5073363;28;20710;-82
2021/08/26 10:37:29;;;;;;;13.02;6.60;;;;;;;14.19;100.00;93609.31;5075476;28;20206;-83
2021/08/26 10:40:26;;;;;;;18.02;6.35;;;;;;;14.16;100.00;93605.28;5074074;28;20199;-83
2021/08/26 10:42:53;;;;;;;16.08;6.68;;;;;;;14.06;100.00;93597.97;5074868;28;20205;-81
2021/08/26 10:45:23;;;;;;;11.20;6.82;;;;;;;13.89;100.00;93594.41;5072906;28;20298;-81
2021/08/26 10:48:15;;;;;;;13.40;6.95;;;;;;;13.77;100.00;93590.94;5073505;28;20237;-82
2021/08/26 10:50:45;;;;;;;16.35;8.85;;;;;;;13.60;100.00;93588.97;5072635;28;20226;-82
2021/08/26 10:53:15;;;;;;;17.38;7.63;;;;;;;13.63;100.00;93591.13;5072834;28;20207;-82
2021/08/26 10:55:51;;;;;;;13.60;7.35;;;;;;;13.66;100.00;93593.31;5073889;28;20198;-81
2021/08/26 10:58:39;;;;;;;17.90;8.70;;;;;;;13.58;100.00;93593.63;5073879;28;20195;-82
2021/08/26 11:01:15;;;;;;;21.98;7.82;;;;;;;13.61;100.00;93587.94;5076979;28;20202;-82
2021/08/26 11:04:02;;;;;;;15.68;8.05;;;;;;;13.51;100.00;93587.69;5076298;28;20205;-82
2021/08/26 11:06:49;;;;;;;13.35;7.30;;;;;;;13.54;100.00;93599.53;5076017;28;20230;-82
2021/08/26 11:09:35;;;;;;;15.77;7.70;;;;;;;13.55;100.00;93594.06;5076037;28;20206;-82
2021/08/26 11:12:24;;;;;;;15.70;7.70;;;;;;;13.46;100.00;93601.47;5076206;28;20226;-82
2021/08/26 11:14:51;;;;;;;16.00;8.35;;;;;;;13.41;100.00;93603.94;5075024;28;20566;-82
2021/08/26 11:17:31;;;;;;;20.17;10.00;;;;;;;13.32;100.00;93600.03;5076520;28;20199;-80
2021/08/26 11:20:00;;;;;;;19.40;9.77;;;;;;;13.11;100.00;93599.44;5077244;28;20202;-82
2021/08/26 11:22:26;;;;;;;19.43;11.50;;;;;;;12.79;100.00;93611.91;5076628;28;20195;-82
2021/08/26 11:25:00;;;;;;;23.73;12.23;;;;;;;12.57;100.00;93608.91;5075833;28;20203;-81
2021/08/26 11:27:36;;;;;;;24.70;12.67;;;;;;;12.37;100.00;93615.16;5075755;28;20231;-80
2021/08/26 11:30:22;;;;;;;23.33;13.63;;;;;;;12.33;100.00;93608.72;5075694;28;20207;-81
2021/08/26 11:32:51;;;;;;;22.40;13.67;;;;;;;12.29;100.00;93617.22;5075899;28;20205;-80
2021/08/26 11:35:17;;;;;;;22.27;13.13;;;;;;;12.27;100.00;93612.19;5075798;28;20729;-82